createdAt,value
2023-01-12T00:02:22.395Z,5.57
2023-01-12T00:04:49.122Z,2.45
2023-01-12T00:07:16.558Z,2.92
2023-01-12T00:09:43.434Z,3.40
2023-01-12T00:12:11.878Z,3.08
2023-01-12T00:14:38.961Z,3.00
2023-01-12T00:17:06.504Z,2.63
2023-01-12T00:19:34.001Z,3.22
2023-01-12T00:22:10.897Z,2.55
2023-01-12T00:24:39.540Z,1.63
2023-01-12T00:27:09.212Z,3.65
2023-01-12T00:29:36.645Z,1.80
2023-01-12T00:32:04.248Z,3.58
2023-01-12T00:34:30.947Z,2.90
2023-01-12T00:37:00.600Z,2.67
2023-01-12T00:39:27.348Z,5.40
2023-01-12T00:42:12.583Z,2.42
2023-01-12T00:44:57.989Z,3.05
2023-01-12T00:47:24.695Z,4.03
2023-01-12T00:49:51.430Z,2.20
2023-01-12T00:52:29.797Z,2.85
2023-01-12T00:54:57.425Z,4.63
2023-01-12T00:57:24.212Z,2.20
2023-01-12T00:59:54.772Z,2.85
2023-01-12T01:02:21.535Z,3.25
2023-01-12T01:04:49.048Z,3.05
2023-01-12T01:07:18.497Z,3.40
2023-01-12T01:09:45.313Z,3.30
2023-01-12T01:12:11.995Z,3.80
2023-01-12T01:14:38.956Z,3.08
2023-01-12T01:17:05.660Z,4.07
2023-01-12T01:19:32.456Z,1.90
2023-01-12T01:21:59.006Z,3.45
2023-01-12T01:24:26.083Z,4.43
2023-01-12T01:26:52.659Z,2.90
2023-01-12T01:29:19.459Z,2.03
2023-01-12T01:31:47.635Z,3.42
2023-01-12T01:34:14.687Z,3.15
2023-01-12T01:36:41.826Z,4.05
2023-01-12T01:39:08.467Z,2.85
2023-01-12T01:41:35.088Z,1.38
2023-01-12T01:44:02.861Z,2.53
2023-01-12T01:46:42.311Z,1.88
2023-01-12T01:49:25.147Z,1.48
2023-01-12T01:52:00.714Z,2.20
2023-01-12T01:54:30.562Z,3.15
2023-01-12T01:56:57.705Z,0.90
2023-01-12T01:59:29.397Z,2.05
2023-01-12T02:01:56.302Z,2.65
2023-01-12T02:04:25.517Z,1.48
2023-01-12T02:06:54.567Z,1.77
2023-01-12T02:09:26.949Z,1.88
2023-01-12T02:15:04.512Z,1.98
2023-01-12T02:17:53.414Z,2.00
2023-01-12T02:20:26.426Z,2.58
2023-01-12T02:23:18.004Z,1.45
2023-01-12T02:26:12.562Z,2.50
2023-01-12T02:29:06.748Z,1.52
2023-01-12T02:32:05.915Z,3.00
2023-01-12T02:34:51.678Z,2.40
2023-01-12T02:37:31.668Z,3.17
2023-01-12T02:40:13.781Z,4.40
2023-01-12T02:42:42.598Z,3.63
2023-01-12T02:45:18.381Z,3.17
2023-01-12T02:47:55.993Z,2.58
2023-01-12T02:50:49.932Z,2.97
2023-01-12T02:53:47.383Z,3.30
2023-01-12T02:56:20.907Z,2.65
2023-01-12T02:58:55.294Z,3.15
2023-01-12T03:01:24.156Z,2.63
2023-01-12T03:03:53.152Z,4.10
2023-01-12T03:06:19.762Z,3.17
2023-01-12T03:08:48.788Z,4.63
2023-01-12T03:11:18.243Z,1.70
2023-01-12T03:13:52.039Z,2.83
2023-01-12T03:16:24.024Z,2.65
2023-01-12T03:19:09.809Z,3.20
2023-01-12T03:21:46.396Z,2.85
2023-01-12T03:24:23.231Z,2.53
2023-01-12T03:26:53.413Z,2.58
2023-01-12T03:29:34.921Z,3.80
2023-01-12T03:32:02.292Z,3.00
2023-01-12T03:34:29.130Z,1.90
2023-01-12T03:37:29.338Z,3.72
2023-01-12T03:40:14.336Z,2.70
2023-01-12T03:42:54.363Z,3.63
2023-01-12T03:45:31.236Z,3.35
2023-01-12T03:48:20.761Z,3.03
2023-01-12T03:50:47.303Z,2.35
2023-01-12T03:53:18.024Z,2.78
2023-01-12T03:55:46.538Z,3.47
2023-01-12T03:58:13.509Z,3.25
2023-01-12T04:00:40.450Z,3.05
2023-01-12T04:03:15.798Z,2.55
2023-01-12T04:05:44.354Z,2.15
2023-01-12T04:08:13.512Z,3.97
2023-01-12T04:10:40.467Z,3.15
2023-01-12T04:13:07.061Z,2.65
2023-01-12T04:15:37.939Z,1.95
2023-01-12T04:18:05.274Z,2.28
2023-01-12T04:20:32.837Z,2.38
2023-01-12T04:22:59.525Z,3.63
2023-01-12T04:25:26.167Z,2.80
2023-01-12T04:28:04.526Z,4.00
2023-01-12T04:30:33.006Z,1.63
2023-01-12T04:33:00.744Z,2.67
2023-01-12T04:35:27.699Z,2.40
2023-01-12T04:37:54.329Z,1.90
2023-01-12T04:40:20.963Z,2.08
2023-01-12T04:43:02.196Z,3.47
2023-01-12T04:45:31.211Z,2.35
2023-01-12T04:48:05.914Z,2.65
2023-01-12T04:50:32.865Z,2.38
2023-01-12T04:53:02.661Z,3.90
2023-01-12T04:55:29.687Z,2.75
2023-01-12T04:57:57.154Z,2.30
2023-01-12T05:00:24.176Z,1.98
2023-01-12T05:02:55.262Z,2.17
2023-01-12T05:05:21.818Z,2.00
2023-01-12T05:08:07.173Z,1.95
2023-01-12T05:10:33.734Z,2.40
2023-01-12T05:13:00.321Z,2.60
2023-01-12T05:15:26.947Z,2.25
2023-01-12T05:17:54.298Z,1.40
2023-01-12T05:20:21.491Z,1.38
2023-01-12T05:22:52.452Z,1.40
2023-01-12T05:25:19.104Z,2.00
2023-01-12T05:27:45.661Z,1.60
2023-01-12T05:30:12.411Z,1.83
2023-01-12T05:32:41.218Z,1.60
2023-01-12T05:35:09.021Z,2.28
2023-01-12T05:37:35.794Z,1.92
2023-01-12T05:40:02.349Z,1.75
2023-01-12T05:42:47.329Z,2.40
2023-01-12T05:45:13.963Z,1.80
2023-01-12T05:47:40.599Z,1.65
2023-01-12T05:50:07.822Z,1.75
2023-01-12T05:52:34.495Z,1.33
2023-01-12T05:55:01.343Z,1.23
2023-01-12T05:57:30.207Z,0.90
2023-01-12T05:59:57.031Z,1.63
2023-01-12T06:02:23.801Z,1.30
2023-01-12T06:04:50.501Z,1.67
2023-01-12T06:07:17.121Z,1.77
2023-01-12T06:09:43.756Z,1.52
2023-01-12T06:12:31.760Z,2.05
2023-01-12T06:14:58.322Z,2.25
2023-01-12T06:17:24.959Z,1.85
2023-01-12T06:19:51.600Z,1.77
2023-01-12T06:22:19.252Z,1.60
2023-01-12T06:24:48.924Z,2.33
2023-01-12T06:27:16.472Z,0.77
2023-01-12T06:29:43.304Z,1.88
2023-01-12T06:32:10.121Z,1.20
2023-01-12T06:34:37.374Z,0.90
2023-01-12T06:37:04.670Z,1.00
2023-01-12T06:39:31.368Z,0.90
2023-01-12T06:42:16.479Z,1.35
2023-01-12T06:44:43.126Z,0.88
2023-01-12T06:47:09.743Z,0.73
2023-01-12T06:49:36.387Z,1.17
2023-01-12T06:52:02.988Z,2.22
2023-01-12T06:54:30.832Z,0.88
2023-01-12T06:56:57.459Z,0.75
2023-01-12T06:59:24.108Z,1.40
2023-01-12T07:01:50.811Z,1.35
2023-01-12T07:04:17.570Z,0.70
2023-01-12T07:06:44.357Z,0.90
2023-01-12T07:09:10.988Z,1.05
2023-01-12T07:11:37.586Z,0.95
2023-01-12T07:14:04.262Z,1.30
2023-01-12T07:16:30.839Z,1.10
2023-01-12T07:18:58.644Z,2.22
2023-01-12T07:21:25.387Z,0.60
2023-01-12T07:23:51.951Z,0.60
2023-01-12T07:26:18.598Z,0.77
2023-01-12T07:28:45.285Z,0.73
2023-01-12T07:31:12.311Z,0.73
2023-01-12T07:33:39.102Z,0.52
2023-01-12T07:36:06.032Z,0.90
2023-01-12T07:38:33.025Z,1.30
2023-01-12T07:41:03.710Z,1.33
2023-01-12T07:43:32.245Z,0.88
2023-01-12T07:45:59.704Z,1.67
2023-01-12T07:48:27.258Z,0.88
2023-01-12T07:50:54.183Z,1.00
2023-01-12T07:53:21.036Z,0.60
2023-01-12T07:55:47.614Z,0.40
2023-01-12T07:58:14.299Z,0.77
2023-01-12T08:00:40.944Z,0.50
2023-01-12T08:03:10.319Z,0.70
2023-01-12T08:05:37.922Z,0.73
2023-01-12T08:08:05.924Z,0.60
2023-01-12T08:10:32.761Z,0.70
2023-01-12T08:12:59.345Z,0.75
2023-01-12T08:15:28.837Z,0.52
2023-01-12T08:18:06.121Z,2.13
2023-01-12T08:20:35.959Z,0.77
2023-01-12T08:23:16.345Z,0.50
2023-01-12T08:25:46.672Z,0.82
2023-01-12T08:28:18.947Z,0.65
2023-01-12T08:33:16.097Z,0.55
2023-01-12T08:35:46.155Z,0.82
2023-01-12T08:38:13.441Z,0.47
2023-01-12T08:40:58.994Z,0.60
2023-01-12T08:43:44.304Z,0.95
2023-01-12T08:46:11.106Z,1.10
2023-01-12T08:48:38.652Z,0.40
2023-01-12T08:51:07.848Z,1.85
2023-01-12T08:53:34.843Z,0.60
2023-01-12T08:56:01.422Z,0.70
2023-01-12T08:58:28.070Z,0.40
2023-01-12T09:00:54.815Z,0.73
2023-01-12T09:03:22.149Z,0.55
2023-01-12T09:05:48.849Z,0.77
2023-01-12T09:08:15.522Z,1.38
2023-01-12T09:10:42.179Z,0.57
2023-01-12T09:13:09.986Z,0.90
2023-01-12T09:15:36.601Z,0.63
2023-01-12T09:18:03.206Z,0.50
2023-01-12T09:20:29.862Z,0.32
2023-01-12T09:22:56.498Z,0.50
2023-01-12T09:25:23.090Z,0.57
2023-01-12T09:27:49.681Z,0.70
2023-01-12T09:30:16.431Z,0.52
2023-01-12T09:32:42.994Z,0.82
2023-01-12T09:35:09.786Z,0.80
2023-01-12T09:37:37.814Z,0.32
2023-01-12T09:40:04.852Z,1.40
2023-01-12T09:42:49.906Z,1.10
2023-01-12T09:45:41.006Z,0.52
2023-01-12T09:48:12.213Z,0.40
2023-01-12T09:51:09.344Z,0.50
2023-01-12T09:53:40.197Z,0.50
2023-01-12T09:56:12.855Z,0.80
2023-01-12T09:58:48.247Z,1.63
2023-01-12T10:01:28.343Z,0.60
2023-01-12T10:03:58.537Z,0.60
2023-01-12T10:06:25.245Z,0.80
2023-01-12T10:08:59.595Z,0.52
2023-01-12T10:11:48.599Z,0.65
2023-01-12T10:14:33.611Z,1.13
2023-01-12T10:17:25.539Z,0.50
2023-01-12T10:20:01.819Z,0.50
2023-01-12T10:22:38.141Z,0.55
2023-01-12T10:25:32.273Z,0.65
2023-01-12T10:28:00.153Z,0.80
2023-01-12T10:30:31.528Z,1.13
2023-01-12T10:33:18.560Z,0.70
2023-01-12T10:35:57.765Z,0.60
2023-01-12T10:38:36.079Z,0.90
2023-01-12T10:41:13.931Z,0.70
2023-01-12T10:43:42.798Z,0.93
2023-01-12T10:46:12.393Z,0.50
2023-01-12T10:48:50.695Z,0.80
2023-01-12T10:51:27.733Z,0.60
2023-01-12T10:54:02.294Z,0.75
2023-01-12T10:56:53.687Z,0.60
2023-01-12T10:59:23.575Z,0.98
2023-01-12T11:01:57.645Z,0.90
2023-01-12T11:04:28.252Z,0.98
2023-01-12T11:07:14.002Z,1.27
2023-01-12T11:09:42.508Z,1.02
2023-01-12T11:12:27.491Z,1.20
2023-01-12T11:15:17.782Z,1.35
2023-01-12T11:18:10.066Z,0.88
2023-01-12T11:20:54.071Z,1.10
2023-01-12T11:23:36.600Z,1.80
2023-01-12T11:28:45.241Z,2.15
2023-01-12T11:31:32.408Z,1.02
2023-01-12T11:34:04.505Z,0.90
2023-01-12T11:36:42.978Z,1.23
2023-01-12T11:39:20.619Z,1.10
2023-01-12T11:42:18.472Z,1.25
2023-01-12T11:45:02.320Z,1.30
2023-01-12T11:47:34.635Z,1.73
2023-01-12T11:52:46.685Z,1.73
2023-01-12T11:55:15.574Z,1.42
2023-01-12T11:57:51.736Z,1.08
2023-01-12T12:00:43.151Z,1.30
2023-01-12T12:03:35.049Z,1.95
2023-01-12T12:06:12.863Z,1.75
2023-01-12T12:09:13.534Z,1.08
2023-01-12T12:11:55.039Z,1.25
2023-01-12T12:14:56.991Z,1.08
2023-01-12T12:17:42.439Z,1.03
2023-01-12T12:20:19.785Z,1.02
2023-01-12T12:23:15.468Z,1.08
2023-01-12T12:26:06.569Z,1.05
2023-01-12T12:28:59.820Z,1.10
2023-01-12T12:32:24.034Z,0.65
2023-01-12T12:34:58.884Z,1.25
2023-01-12T12:37:54.150Z,1.10
2023-01-12T12:41:10.518Z,1.35
2023-01-12T12:43:56.573Z,1.58
2023-01-12T12:46:32.311Z,1.27
2023-01-12T12:49:11.552Z,1.33
2023-01-12T12:51:40.706Z,1.48
2023-01-12T12:54:15.621Z,1.52
2023-01-12T12:56:42.595Z,1.20
2023-01-12T12:59:31.828Z,1.50
2023-01-12T13:02:00.955Z,1.30
2023-01-12T13:04:42.772Z,1.42
2023-01-12T13:07:16.460Z,1.35
2023-01-12T13:09:43.619Z,1.17
2023-01-12T13:12:20.628Z,1.65
2023-01-12T13:15:18.755Z,1.05
2023-01-12T13:17:47.619Z,1.88
2023-01-12T13:20:35.877Z,1.50
2023-01-12T13:23:02.798Z,0.95
2023-01-12T13:25:35.299Z,0.98
2023-01-12T13:28:01.844Z,1.08
2023-01-12T13:30:28.556Z,1.15
2023-01-12T13:33:11.325Z,1.45
2023-01-12T13:35:40.637Z,1.48
2023-01-12T13:38:28.555Z,1.33
2023-01-12T13:41:13.443Z,1.55
2023-01-12T13:43:56.856Z,1.45
2023-01-12T13:46:36.637Z,1.40
2023-01-12T13:49:18.999Z,1.45
2023-01-12T13:51:59.203Z,1.33
2023-01-12T13:54:26.624Z,2.50
2023-01-12T13:57:06.567Z,1.85
2023-01-12T13:59:34.864Z,1.48
2023-01-12T14:02:01.640Z,1.67
2023-01-12T14:04:54.425Z,1.60
2023-01-12T14:10:25.278Z,1.42
2023-01-12T14:12:51.913Z,1.77
2023-01-12T14:15:58.853Z,1.20
2023-01-12T14:18:28.308Z,0.98
2023-01-12T14:20:58.506Z,1.33
2023-01-12T14:23:29.921Z,1.25
2023-01-12T14:26:13.126Z,1.93
2023-01-12T14:28:42.911Z,1.70
2023-01-12T14:32:04.931Z,1.45
2023-01-12T14:34:35.712Z,1.77
2023-01-12T14:37:07.560Z,2.28
2023-01-12T14:39:41.046Z,1.58
2023-01-12T14:42:35.886Z,1.58
2023-01-12T14:45:21.787Z,1.48
2023-01-12T14:47:48.443Z,1.17
2023-01-12T14:50:15.150Z,1.30
2023-01-12T14:52:44.191Z,1.33
2023-01-12T14:55:41.636Z,1.05
2023-01-12T14:58:20.565Z,1.33
2023-01-12T15:00:47.848Z,1.38
2023-01-12T15:03:35.144Z,1.42
2023-01-12T15:06:02.823Z,1.23
2023-01-12T15:08:30.958Z,0.70
2023-01-12T15:11:05.484Z,1.58
2023-01-12T15:13:34.864Z,1.17
2023-01-12T15:16:20.766Z,1.05
2023-01-12T15:19:06.508Z,0.80
2023-01-12T15:21:52.514Z,0.70
2023-01-12T15:24:47.167Z,1.15
2023-01-12T15:27:19.156Z,1.08
2023-01-12T15:29:46.328Z,0.90
2023-01-12T15:32:19.020Z,1.67
2023-01-12T15:34:45.846Z,1.38
2023-01-12T15:37:17.352Z,1.27
2023-01-12T15:39:44.311Z,1.40
2023-01-12T15:42:16.827Z,1.13
2023-01-12T15:44:49.176Z,0.82
2023-01-12T15:49:47.677Z,1.55
2023-01-12T15:52:18.588Z,1.35
2023-01-12T15:54:45.255Z,1.77
2023-01-12T15:57:13.315Z,1.45
2023-01-12T15:59:40.426Z,1.45
2023-01-12T16:02:22.014Z,1.35
2023-01-12T16:04:48.625Z,1.30
2023-01-12T16:07:15.215Z,1.42
2023-01-12T16:09:41.788Z,1.83
2023-01-12T16:12:08.931Z,0.95
2023-01-12T16:14:35.554Z,1.42
2023-01-12T16:17:02.216Z,1.52
2023-01-12T16:19:28.822Z,1.98
2023-01-12T16:21:55.750Z,1.40
2023-01-12T16:24:26.349Z,2.03
2023-01-12T16:26:53.393Z,1.00
2023-01-12T16:29:21.909Z,1.20
2023-01-12T16:31:48.610Z,0.90
2023-01-12T16:34:18.136Z,1.30
2023-01-12T16:36:44.839Z,1.23
2023-01-12T16:39:13.069Z,1.30
2023-01-12T16:41:39.772Z,1.10
2023-01-12T16:44:06.366Z,0.88
2023-01-12T16:46:32.936Z,1.35
2023-01-12T16:49:02.605Z,1.08
2023-01-12T16:51:29.298Z,2.13
2023-01-12T16:53:57.256Z,5.57
2023-01-12T16:56:23.820Z,1.95
2023-01-12T16:58:51.736Z,1.20
2023-01-12T17:01:21.494Z,1.40
2023-01-12T17:03:48.925Z,1.80
2023-01-12T17:06:18.320Z,1.75
2023-01-12T17:08:45.425Z,1.65
2023-01-12T17:11:15.554Z,1.58
2023-01-12T17:13:42.814Z,1.80
2023-01-12T17:16:10.754Z,1.23
2023-01-12T17:18:38.772Z,1.13
2023-01-12T17:21:09.252Z,1.20
2023-01-12T17:23:36.382Z,1.45
2023-01-12T17:26:04.683Z,1.55
2023-01-12T17:28:34.540Z,1.27
2023-01-12T17:31:10.757Z,1.13
2023-01-12T17:33:38.595Z,2.15
2023-01-12T17:36:08.042Z,1.85
2023-01-12T17:38:36.656Z,1.30
2023-01-12T17:41:08.939Z,1.38
2023-01-12T17:46:04.336Z,1.00
2023-01-12T17:48:31.014Z,1.50
2023-01-12T17:50:57.631Z,1.45
2023-01-12T17:53:24.230Z,1.27
2023-01-12T17:55:52.313Z,1.98
2023-01-12T17:58:19.743Z,1.38
2023-01-12T18:00:46.350Z,1.98
2023-01-12T18:03:12.919Z,1.55
2023-01-12T18:05:40.886Z,1.05
2023-01-12T18:08:09.038Z,1.10
2023-01-12T18:10:35.664Z,1.10
2023-01-12T18:13:02.435Z,1.13
2023-01-12T18:15:29.560Z,1.58
2023-01-12T18:17:56.185Z,1.65
2023-01-12T18:20:22.827Z,1.08
2023-01-12T18:22:49.921Z,1.50
2023-01-12T18:25:16.568Z,1.13
2023-01-12T18:27:45.362Z,1.02
2023-01-12T18:30:12.616Z,0.70
2023-01-12T18:32:39.611Z,1.63
2023-01-12T18:35:06.494Z,1.20
2023-01-12T18:37:33.223Z,1.88
2023-01-12T18:40:00.043Z,2.22
2023-01-12T18:42:45.600Z,2.67
2023-01-12T18:45:12.166Z,2.55
2023-01-12T18:47:57.418Z,1.23
2023-01-12T18:50:42.718Z,2.03
2023-01-12T18:53:29.302Z,2.97
2023-01-12T18:55:57.904Z,1.58
2023-01-12T18:58:27.710Z,1.45
2023-01-12T19:00:59.037Z,5.45
2023-01-12T19:03:25.675Z,2.38
2023-01-12T19:06:21.589Z,0.77
2023-01-12T19:09:07.519Z,1.38
2023-01-12T19:11:34.230Z,1.13
2023-01-12T19:14:19.562Z,1.25
2023-01-12T19:17:04.770Z,1.00
2023-01-12T19:19:32.215Z,0.82
2023-01-12T19:22:34.680Z,1.38
2023-01-12T19:25:19.887Z,0.93
2023-01-12T19:28:05.515Z,1.00
2023-01-12T19:30:33.701Z,1.23
2023-01-12T19:33:01.157Z,0.70
2023-01-12T19:35:27.892Z,1.10
2023-01-12T19:37:54.675Z,1.00
2023-01-12T19:40:21.264Z,1.02
2023-01-12T19:43:06.977Z,1.00
2023-01-12T19:45:37.945Z,1.17
2023-01-12T19:48:04.876Z,1.65
2023-01-12T19:50:31.677Z,1.42
2023-01-12T19:52:58.253Z,1.42
2023-01-12T19:55:25.166Z,1.08
2023-01-12T19:57:53.784Z,1.23
2023-01-12T20:00:21.376Z,1.05
2023-01-12T20:02:48.086Z,0.80
2023-01-12T20:05:22.306Z,1.35
2023-01-12T20:07:55.113Z,0.93
2023-01-12T20:10:22.648Z,1.20
2023-01-12T20:12:51.207Z,0.85
2023-01-12T20:15:20.436Z,1.10
2023-01-12T20:17:48.314Z,0.90
2023-01-12T20:20:15.820Z,1.00
2023-01-12T20:22:42.595Z,1.25
2023-01-12T20:25:10.176Z,1.00
2023-01-12T20:27:37.977Z,1.45
2023-01-12T20:30:06.282Z,1.00
2023-01-12T20:32:37.930Z,0.77
2023-01-12T20:35:06.104Z,0.85
2023-01-12T20:37:33.715Z,0.82
2023-01-12T20:40:00.799Z,0.98
2023-01-12T20:42:29.161Z,1.25
2023-01-12T20:44:55.967Z,1.50
2023-01-12T20:47:22.571Z,1.38
2023-01-12T20:49:49.167Z,0.98
2023-01-12T20:52:15.744Z,6.03
2023-01-12T20:54:42.887Z,2.17
2023-01-12T20:57:12.895Z,2.38
2023-01-12T20:59:39.994Z,1.40
2023-01-12T21:02:06.937Z,0.80
2023-01-12T21:04:33.897Z,1.55
2023-01-12T21:07:00.818Z,1.80
2023-01-12T21:09:27.410Z,2.03
2023-01-12T21:11:54.071Z,1.70
2023-01-12T21:14:22.854Z,1.40
2023-01-12T21:16:49.730Z,1.63
2023-01-12T21:19:17.184Z,1.00
2023-01-12T21:21:44.789Z,1.92
2023-01-12T21:24:11.414Z,1.35
2023-01-12T21:26:38.037Z,1.58
2023-01-12T21:29:04.891Z,1.15
2023-01-12T21:31:31.681Z,1.30
2023-01-12T21:34:01.822Z,1.20
2023-01-12T21:36:28.497Z,1.40
2023-01-12T21:38:55.122Z,1.77
2023-01-12T21:41:22.394Z,0.90
2023-01-12T21:43:50.197Z,0.60
2023-01-12T21:46:17.190Z,1.00
2023-01-12T21:48:44.601Z,1.05
2023-01-12T21:51:14.225Z,1.42
2023-01-12T21:53:44.308Z,1.55
2023-01-12T21:56:15.085Z,1.17
2023-01-12T21:58:42.078Z,1.10
2023-01-12T22:01:11.350Z,0.95
2023-01-12T22:03:38.607Z,1.10
2023-01-12T22:06:07.989Z,0.93
2023-01-12T22:08:36.083Z,1.50
2023-01-12T22:11:13.346Z,1.58
2023-01-12T22:13:40.648Z,1.00
2023-01-12T22:16:11.682Z,1.10
2023-01-12T22:18:39.639Z,1.05
2023-01-12T22:21:08.872Z,1.17
2023-01-12T22:23:39.453Z,0.90
2023-01-12T22:26:09.777Z,0.95
2023-01-12T22:28:39.030Z,1.15
2023-01-12T22:31:14.372Z,1.42
2023-01-12T22:33:45.100Z,0.65
2023-01-12T22:36:12.017Z,0.70
2023-01-12T22:38:38.580Z,1.30
2023-01-12T22:41:07.295Z,1.20
2023-01-12T22:43:40.343Z,1.17
2023-01-12T22:46:18.070Z,1.80
2023-01-12T22:48:48.736Z,1.27
2023-01-12T22:51:15.853Z,1.08
2023-01-12T22:53:42.498Z,1.40
2023-01-12T22:56:11.629Z,1.27
2023-01-12T22:58:39.176Z,1.08
2023-01-12T23:01:09.543Z,1.83
2023-01-12T23:03:37.423Z,1.63
2023-01-12T23:06:05.283Z,1.13
2023-01-12T23:08:32.249Z,1.65
2023-01-12T23:11:12.161Z,1.75
2023-01-12T23:13:40.433Z,2.03
2023-01-12T23:16:08.926Z,2.00
2023-01-12T23:18:39.853Z,1.85
2023-01-12T23:21:11.266Z,1.33
2023-01-12T23:23:38.919Z,1.33
2023-01-12T23:26:08.504Z,1.65
2023-01-12T23:28:38.820Z,1.70
2023-01-12T23:31:08.524Z,1.30
2023-01-12T23:33:36.515Z,1.38
2023-01-12T23:36:08.836Z,1.63
2023-01-12T23:41:18.315Z,1.52
2023-01-12T23:43:45.952Z,2.08
2023-01-12T23:46:13.416Z,1.63
2023-01-12T23:48:41.051Z,1.50
2023-01-12T23:51:07.842Z,1.25
2023-01-12T23:53:35.665Z,1.77
2023-01-12T23:56:07.363Z,1.50
2023-01-12T23:58:34.315Z,2.88
